createdAt,value
2018-11-14T00:02:11.768Z,99749.42
2018-11-14T00:04:40.238Z,99759.25
2018-11-14T00:07:08.674Z,99752.29
2018-11-14T00:09:37.176Z,99756.30
2018-11-14T00:12:06.107Z,99748.02
2018-11-14T00:14:34.547Z,99747.63
2018-11-14T00:17:03.300Z,99750.36
2018-11-14T00:19:31.782Z,99752.11
2018-11-14T00:22:00.226Z,99758.72
2018-11-14T00:24:28.789Z,99753.45
2018-11-14T00:26:57.224Z,99756.70
2018-11-14T00:29:25.688Z,99758.94
2018-11-14T00:31:54.175Z,99755.20
2018-11-14T00:34:22.637Z,99754.04
2018-11-14T00:36:51.107Z,99759.84
2018-11-14T00:39:19.651Z,99754.34
2018-11-14T00:41:48.119Z,99755.13
2018-11-14T00:44:16.580Z,99759.47
2018-11-14T00:46:45.044Z,99766.91
2018-11-14T00:49:13.486Z,99766.77
2018-11-14T00:51:41.959Z,99759.00
2018-11-14T00:54:10.419Z,99759.00
2018-11-14T00:56:38.870Z,99748.48
2018-11-14T00:59:07.330Z,99756.03
2018-11-14T01:01:36.092Z,99753.48
2018-11-14T01:04:04.739Z,99752.48
2018-11-14T01:06:33.173Z,99740.84
2018-11-14T01:09:01.649Z,99739.97
2018-11-14T01:11:30.264Z,99737.23
2018-11-14T01:13:58.727Z,99735.98
2018-11-14T01:16:27.177Z,99743.55
2018-11-14T01:18:55.943Z,99736.63
2018-11-14T01:21:24.614Z,99742.34
2018-11-14T01:23:53.244Z,99740.64
2018-11-14T01:26:21.711Z,99746.38
2018-11-14T01:28:50.174Z,99747.39
2018-11-14T01:31:18.818Z,99746.36
2018-11-14T01:33:47.532Z,99743.48
2018-11-14T01:36:16.042Z,99748.55
2018-11-14T01:38:44.539Z,99756.39
2018-11-14T01:41:12.987Z,99750.24
2018-11-14T01:43:41.471Z,99753.58
2018-11-14T01:46:10.280Z,99754.57
2018-11-14T01:48:38.779Z,99753.28
2018-11-14T01:51:07.544Z,99750.45
2018-11-14T01:53:36.003Z,99752.52
2018-11-14T01:56:04.748Z,99755.41
2018-11-14T01:58:33.351Z,99748.69
2018-11-14T02:01:01.812Z,99747.47
2018-11-14T02:03:30.374Z,99745.92
2018-11-14T02:05:59.168Z,99748.71
2018-11-14T02:08:27.703Z,99746.48
2018-11-14T02:10:56.175Z,99747.18
2018-11-14T02:13:24.655Z,99740.26
2018-11-14T02:15:53.180Z,99738.77
2018-11-14T02:18:21.673Z,99740.98
2018-11-14T02:20:50.166Z,99744.65
2018-11-14T02:23:18.623Z,99735.25
2018-11-14T02:25:47.070Z,99739.46
2018-11-14T02:28:15.578Z,99740.20
2018-11-14T02:30:44.085Z,99731.86
2018-11-14T02:33:12.609Z,99725.93
2018-11-14T02:35:41.109Z,99729.39
2018-11-14T02:38:09.587Z,99728.13
2018-11-14T02:40:38.095Z,99731.42
2018-11-14T02:43:06.919Z,99732.91
2018-11-14T02:45:35.399Z,99723.08
2018-11-14T02:48:03.931Z,99721.70
2018-11-14T02:50:32.519Z,99723.28
2018-11-14T02:53:01.232Z,99724.56
2018-11-14T02:55:29.688Z,99730.54
2018-11-14T02:57:58.152Z,99730.59
2018-11-14T03:00:26.663Z,99734.12
2018-11-14T03:02:55.424Z,99729.84
2018-11-14T03:05:23.928Z,99728.61
2018-11-14T03:07:52.420Z,99728.88
2018-11-14T03:10:21.953Z,99729.02
2018-11-14T03:12:50.479Z,99722.63
2018-11-14T03:15:22.724Z,99722.23
2018-11-14T03:17:51.268Z,99721.02
2018-11-14T03:20:21.153Z,99730.00
2018-11-14T03:22:49.679Z,99732.88
2018-11-14T03:25:18.191Z,99727.09
2018-11-14T03:27:46.663Z,99731.17
2018-11-14T03:30:16.500Z,99735.13
2018-11-14T03:32:45.483Z,99732.88
2018-11-14T03:35:14.596Z,99737.33
2018-11-14T03:37:43.078Z,99739.12
2018-11-14T03:40:14.334Z,99737.73
2018-11-14T03:42:42.872Z,99731.96
2018-11-14T03:45:12.735Z,99739.53
2018-11-14T03:47:41.923Z,99730.91
2018-11-14T03:50:11.032Z,99730.41
2018-11-14T03:52:40.581Z,99716.16
2018-11-14T03:55:09.068Z,99729.20
2018-11-14T03:57:37.599Z,99728.22
2018-11-14T04:00:09.105Z,99734.58
2018-11-14T04:02:37.632Z,99728.27
2018-11-14T04:05:06.674Z,99730.11
2018-11-14T04:07:35.146Z,99731.30
2018-11-14T04:10:03.658Z,99730.64
2018-11-14T04:12:32.121Z,99740.09
2018-11-14T04:15:00.579Z,99753.86
2018-11-14T04:17:29.377Z,99752.10
2018-11-14T04:19:58.446Z,99745.76
2018-11-14T04:22:26.953Z,99743.61
2018-11-14T04:24:55.448Z,99750.09
2018-11-14T04:27:23.935Z,99754.63
2018-11-14T04:29:52.560Z,99757.96
2018-11-14T04:32:21.020Z,99752.45
2018-11-14T04:34:49.548Z,99757.67
2018-11-14T04:37:18.071Z,99750.96
2018-11-14T04:39:47.055Z,99753.41
2018-11-14T04:42:46.193Z,99756.50
2018-11-14T04:45:18.307Z,99763.21
2018-11-14T04:47:46.926Z,99764.30
2018-11-14T04:50:17.719Z,99764.52
2018-11-14T04:52:47.292Z,99763.45
2018-11-14T04:55:17.163Z,99757.64
2018-11-14T04:57:45.954Z,99755.44
2018-11-14T05:00:15.496Z,99754.50
2018-11-14T05:02:44.682Z,99755.74
2018-11-14T05:05:15.755Z,99759.27
2018-11-14T05:07:44.250Z,99756.14
2018-11-14T05:10:17.091Z,99751.27
2018-11-14T05:12:45.890Z,99750.30
2018-11-14T05:15:15.809Z,99753.89
2018-11-14T05:17:45.019Z,99757.70
2018-11-14T05:20:14.608Z,99762.24
2018-11-14T05:22:43.614Z,99759.40
2018-11-14T05:25:12.162Z,99761.12
2018-11-14T05:27:40.987Z,99755.63
2018-11-14T05:30:11.624Z,99771.20
2018-11-14T05:32:40.124Z,99769.16
2018-11-14T05:35:10.092Z,99765.17
2018-11-14T05:37:39.112Z,99769.94
2018-11-14T05:40:10.782Z,99771.44
2018-11-14T05:42:39.878Z,99781.89
2018-11-14T05:45:10.745Z,99776.31
2018-11-14T05:47:39.408Z,99784.09
2018-11-14T05:50:12.090Z,99782.25
2018-11-14T05:52:40.887Z,99788.45
2018-11-14T05:55:10.382Z,99769.71
2018-11-14T05:57:39.247Z,99760.70
2018-11-14T06:00:12.884Z,99755.78
2018-11-14T06:02:41.353Z,99755.98
2018-11-14T06:05:10.363Z,99762.51
2018-11-14T06:07:39.470Z,99763.58
2018-11-14T06:10:09.860Z,99771.12
2018-11-14T06:12:38.374Z,99770.63
2018-11-14T06:15:10.189Z,99766.20
2018-11-14T06:17:38.710Z,99770.63
2018-11-14T06:20:08.807Z,99778.59
2018-11-14T06:22:37.313Z,99785.97
2018-11-14T06:25:17.356Z,99780.95
2018-11-14T06:27:45.844Z,99771.36
2018-11-14T06:30:14.334Z,99775.45
2018-11-14T06:32:42.872Z,99773.16
2018-11-14T06:35:11.384Z,99782.66
2018-11-14T06:37:39.908Z,99783.06
2018-11-14T06:40:10.459Z,99777.56
2018-11-14T06:42:39.739Z,99779.58
2018-11-14T06:45:11.193Z,99777.83
2018-11-14T06:47:40.194Z,99774.16
2018-11-14T06:50:09.867Z,99781.88
2018-11-14T06:52:38.782Z,99778.80
2018-11-14T06:55:09.239Z,99779.77
2018-11-14T06:57:38.062Z,99779.86
2018-11-14T07:00:10.335Z,99784.99
2018-11-14T07:02:38.847Z,99783.55
2018-11-14T07:05:10.194Z,99796.70
2018-11-14T07:07:38.704Z,99784.77
2018-11-14T07:10:09.074Z,99783.72
2018-11-14T07:12:37.604Z,99772.41
2018-11-14T07:15:09.101Z,99781.00
2018-11-14T07:17:37.759Z,99775.73
2018-11-14T07:20:09.390Z,99779.98
2018-11-14T07:22:37.829Z,99769.36
2018-11-14T07:25:06.767Z,99775.88
2018-11-14T07:27:35.225Z,99774.57
2018-11-14T07:30:04.190Z,99779.53
2018-11-14T07:32:33.341Z,99782.68
2018-11-14T07:35:01.805Z,99779.55
2018-11-14T07:37:30.334Z,99780.45
2018-11-14T07:39:58.871Z,99776.78
2018-11-14T07:42:27.581Z,99785.86
2018-11-14T07:44:56.112Z,99776.81
2018-11-14T07:47:24.617Z,99780.92
2018-11-14T07:49:53.484Z,99770.78
2018-11-14T07:52:21.945Z,99781.59
2018-11-14T07:54:50.463Z,99777.91
2018-11-14T07:57:18.928Z,99782.29
2018-11-14T07:59:47.517Z,99776.91
2018-11-14T08:02:16.261Z,99783.28
2018-11-14T08:04:44.719Z,99782.40
2018-11-14T08:07:13.206Z,99782.26
2018-11-14T08:09:41.719Z,99771.09
2018-11-14T08:12:10.224Z,99779.37
2018-11-14T08:14:38.739Z,99785.05
2018-11-14T08:17:07.224Z,99780.80
2018-11-14T08:19:36.052Z,99775.94
2018-11-14T08:22:04.874Z,99770.09
2018-11-14T08:24:33.368Z,99780.80
2018-11-14T08:27:01.892Z,99780.19
2018-11-14T08:29:30.593Z,99779.80
2018-11-14T08:31:59.100Z,99774.39
2018-11-14T08:34:27.573Z,99777.70
2018-11-14T08:36:56.112Z,99784.97
2018-11-14T08:39:24.865Z,99783.86
2018-11-14T08:41:53.285Z,99788.80
2018-11-14T08:44:21.851Z,99786.45
2018-11-14T08:46:50.326Z,99778.89
2018-11-14T08:49:18.840Z,99776.36
2018-11-14T08:51:47.296Z,99770.00
2018-11-14T08:54:16.039Z,99763.52
2018-11-14T08:56:44.547Z,99767.86
2018-11-14T08:59:13.255Z,99774.34
2018-11-14T09:01:41.748Z,99766.23
2018-11-14T09:04:10.286Z,99762.03
2018-11-14T09:06:38.759Z,99746.86
2018-11-14T09:09:09.314Z,99754.77
2018-11-14T09:11:37.761Z,99753.58
2018-11-14T09:14:07.062Z,99757.02
2018-11-14T09:16:35.948Z,99755.78
2018-11-14T09:19:04.720Z,99763.69
2018-11-14T09:21:33.236Z,99759.11
2018-11-14T09:24:01.837Z,99756.86
2018-11-14T09:26:30.378Z,99753.16
2018-11-14T09:28:58.884Z,99751.12
2018-11-14T09:31:27.367Z,99753.27
2018-11-14T09:33:55.840Z,99747.33
2018-11-14T09:36:24.512Z,99748.81
2018-11-14T09:38:52.948Z,99745.37
2018-11-14T09:41:21.488Z,99746.67
2018-11-14T09:43:50.015Z,99734.89
2018-11-14T09:46:18.915Z,99736.05
2018-11-14T09:48:47.408Z,99733.36
2018-11-14T09:51:16.100Z,99737.20
2018-11-14T09:53:44.610Z,99735.14
2018-11-14T09:56:13.197Z,99727.32
2018-11-14T09:58:41.692Z,99725.89
2018-11-14T10:01:10.240Z,99737.58
2018-11-14T10:03:38.758Z,99729.42
2018-11-14T10:06:07.292Z,99725.47
2018-11-14T10:08:36.043Z,99717.61
2018-11-14T10:11:04.512Z,99716.63
2018-11-14T10:13:33.128Z,99710.72
2018-11-14T10:16:01.622Z,99710.03
2018-11-14T10:18:30.184Z,99708.25
2018-11-14T10:20:58.669Z,99706.32
2018-11-14T10:23:27.371Z,99699.84
2018-11-14T10:25:56.071Z,99693.75
2018-11-14T10:28:24.530Z,99688.17
2018-11-14T10:30:53.032Z,99687.73
2018-11-14T10:33:21.489Z,99687.60
2018-11-14T10:35:49.972Z,99695.48
2018-11-14T10:38:18.437Z,99693.12
2018-11-14T10:40:47.140Z,99685.69
2018-11-14T10:43:15.644Z,99667.50
2018-11-14T10:45:44.104Z,99675.18
2018-11-14T10:48:12.782Z,99674.10
2018-11-14T10:50:41.374Z,99672.87
2018-11-14T10:53:09.860Z,99670.61
2018-11-14T10:55:38.318Z,99669.14
2018-11-14T10:58:06.860Z,99665.60
2018-11-14T11:00:40.534Z,99665.64
2018-11-14T11:03:17.100Z,99662.69
2018-11-14T11:05:51.023Z,99654.75
2018-11-14T11:08:24.736Z,99651.76
2018-11-14T11:10:58.504Z,99647.23
2018-11-14T11:13:32.351Z,99639.55
2018-11-14T11:16:06.081Z,99631.27
2018-11-14T11:18:35.215Z,99640.11
2018-11-14T11:21:03.704Z,99625.79
2018-11-14T11:23:32.281Z,99624.25
2018-11-14T11:26:00.727Z,99619.92
2018-11-14T11:28:29.354Z,99616.00
2018-11-14T11:30:57.885Z,99613.80
2018-11-14T11:33:26.350Z,99608.73
2018-11-14T11:35:54.858Z,99606.91
2018-11-14T11:38:23.460Z,99608.55
2018-11-14T11:40:51.908Z,99602.20
2018-11-14T11:43:20.594Z,99607.92
2018-11-14T11:45:49.086Z,99613.32
2018-11-14T11:48:17.599Z,99618.89
2018-11-14T11:50:46.287Z,99621.95
2018-11-14T11:53:14.783Z,99619.25
2018-11-14T11:55:43.839Z,99617.26
2018-11-14T11:58:12.324Z,99624.10
2018-11-14T12:00:41.291Z,99617.76
2018-11-14T12:03:09.667Z,99607.42
2018-11-14T12:05:38.148Z,99596.97
2018-11-14T12:08:06.667Z,99595.22
2018-11-14T12:10:35.168Z,99587.81
2018-11-14T12:13:03.704Z,99574.56
2018-11-14T12:15:32.170Z,99571.81
2018-11-14T12:18:01.229Z,99569.88
2018-11-14T12:20:29.696Z,99567.20
2018-11-14T12:22:58.206Z,99562.47
2018-11-14T12:25:26.684Z,99563.05
2018-11-14T12:27:55.235Z,99560.48
2018-11-14T12:30:24.063Z,99555.12
2018-11-14T12:32:52.765Z,99554.64
2018-11-14T12:35:21.340Z,99547.30
2018-11-14T12:37:49.725Z,99537.35
2018-11-14T12:40:18.586Z,99541.95
2018-11-14T12:42:47.091Z,99546.12
2018-11-14T12:45:16.535Z,99540.59
2018-11-14T12:47:45.061Z,99541.75
2018-11-14T12:50:14.527Z,99541.14
2018-11-14T12:52:43.706Z,99540.21
2018-11-14T12:55:16.605Z,99531.39
2018-11-14T12:57:45.327Z,99530.88
2018-11-14T13:00:16.347Z,99531.41
2018-11-14T13:02:45.156Z,99536.03
2018-11-14T13:05:14.636Z,99523.27
2018-11-14T13:07:43.951Z,99518.55
2018-11-14T13:10:13.749Z,99518.28
2018-11-14T13:12:43.796Z,99514.55
2018-11-14T13:15:13.708Z,99515.21
2018-11-14T13:17:43.189Z,99504.53
2018-11-14T13:20:14.298Z,99507.63
2018-11-14T13:22:43.143Z,99504.52
2018-11-14T13:25:12.664Z,99500.94
2018-11-14T13:27:42.344Z,99497.06
2018-11-14T13:30:14.882Z,99500.30
2018-11-14T13:32:44.048Z,99505.08
2018-11-14T13:35:14.041Z,99503.06
2018-11-14T13:37:43.575Z,99501.59
2018-11-14T13:40:12.476Z,99500.23
2018-11-14T13:42:41.448Z,99510.84
2018-11-14T13:45:11.520Z,99512.65
2018-11-14T13:47:40.495Z,99514.16
2018-11-14T13:50:12.156Z,99510.63
2018-11-14T13:52:40.950Z,99499.09
2018-11-14T13:55:11.760Z,99492.50
2018-11-14T13:57:40.995Z,99502.66
2018-11-14T14:00:11.115Z,99508.53
2018-11-14T14:02:39.596Z,99507.86
2018-11-14T14:05:10.420Z,99501.59
2018-11-14T14:07:39.047Z,99498.81
2018-11-14T14:10:08.737Z,99503.83
2018-11-14T14:12:37.536Z,99509.15
2018-11-14T14:15:08.657Z,99500.50
2018-11-14T14:17:37.148Z,99494.02
2018-11-14T14:20:07.241Z,99497.39
2018-11-14T14:22:35.667Z,99498.24
2018-11-14T14:25:04.439Z,99502.07
2018-11-14T14:27:32.925Z,99501.34
2018-11-14T14:30:01.446Z,99500.10
2018-11-14T14:32:29.934Z,99497.13
2018-11-14T14:34:58.439Z,99501.44
2018-11-14T14:37:26.882Z,99503.07
2018-11-14T14:39:55.396Z,99505.11
2018-11-14T14:42:23.891Z,99504.51
2018-11-14T14:44:52.903Z,99493.03
2018-11-14T14:47:21.685Z,99501.78
2018-11-14T14:49:50.677Z,99503.86
2018-11-14T14:52:19.324Z,99502.45
2018-11-14T14:54:47.835Z,99501.36
2018-11-14T14:57:16.453Z,99498.43
2018-11-14T14:59:44.948Z,99505.25
2018-11-14T15:02:13.541Z,99507.72
2018-11-14T15:04:42.997Z,99500.58
2018-11-14T15:07:11.500Z,99505.13
2018-11-14T15:09:40.020Z,99499.13
2018-11-14T15:12:08.628Z,99509.09
2018-11-14T15:14:37.104Z,99507.28
2018-11-14T15:17:05.892Z,99507.12
2018-11-14T15:19:34.362Z,99509.20
2018-11-14T15:22:02.863Z,99510.40
2018-11-14T15:24:31.355Z,99508.86
2018-11-14T15:26:59.890Z,99514.94
2018-11-14T15:29:28.350Z,99519.36
2018-11-14T15:31:56.833Z,99514.08
2018-11-14T15:34:25.305Z,99509.95
2018-11-14T15:36:53.775Z,99517.77
2018-11-14T15:39:22.235Z,99521.16
2018-11-14T15:41:50.754Z,99515.80
2018-11-14T15:44:19.274Z,99525.06
2018-11-14T15:46:47.749Z,99518.59
2018-11-14T15:49:16.252Z,99518.93
2018-11-14T15:51:44.903Z,99514.14
2018-11-14T15:54:13.312Z,99508.77
2018-11-14T15:56:41.796Z,99506.37
2018-11-14T15:59:10.283Z,99510.38
2018-11-14T16:01:38.772Z,99514.95
2018-11-14T16:04:07.379Z,99521.45
2018-11-14T16:06:35.976Z,99516.20
2018-11-14T16:09:06.567Z,99516.42
2018-11-14T16:11:35.076Z,99523.24
2018-11-14T16:14:04.563Z,99518.97
2018-11-14T16:16:33.134Z,99515.73
2018-11-14T16:19:01.922Z,99522.48
2018-11-14T16:21:30.380Z,99519.03
2018-11-14T16:23:58.847Z,99528.11
2018-11-14T16:26:27.557Z,99523.64
2018-11-14T16:28:56.020Z,99521.39
2018-11-14T16:31:24.806Z,99520.23
2018-11-14T16:33:53.296Z,99514.67
2018-11-14T16:36:21.852Z,99509.52
2018-11-14T16:38:50.514Z,99509.80
2018-11-14T16:41:18.974Z,99517.35
2018-11-14T16:43:47.516Z,99509.42
2018-11-14T16:46:16.063Z,99512.77
2018-11-14T16:48:44.882Z,99511.73
2018-11-14T16:51:13.524Z,99511.41
2018-11-14T16:53:42.068Z,99517.38
2018-11-14T16:56:10.611Z,99515.67
2018-11-14T16:58:39.448Z,99519.52
2018-11-14T17:01:07.883Z,99524.67
2018-11-14T17:03:37.171Z,99537.52
2018-11-14T17:06:05.739Z,99538.41
2018-11-14T17:08:34.261Z,99536.87
2018-11-14T17:11:02.825Z,99538.09
2018-11-14T17:13:31.416Z,99526.57
2018-11-14T17:15:59.914Z,99530.36
2018-11-14T17:18:28.643Z,99531.12
2018-11-14T17:20:57.136Z,99537.18
2018-11-14T17:23:25.633Z,99534.95
2018-11-14T17:25:54.150Z,99526.05
2018-11-14T17:28:22.675Z,99532.92
2018-11-14T17:30:51.185Z,99525.39
2018-11-14T17:33:19.951Z,99534.73
2018-11-14T17:35:48.490Z,99531.73
2018-11-14T17:38:16.913Z,99528.58
2018-11-14T17:40:45.406Z,99537.23
2018-11-14T17:43:13.853Z,99539.77
2018-11-14T17:45:42.484Z,99540.36
2018-11-14T17:48:11.101Z,99532.02
2018-11-14T17:50:39.785Z,99539.59
2018-11-14T17:53:08.312Z,99532.08
2018-11-14T17:55:37.078Z,99542.98
2018-11-14T17:58:05.536Z,99547.09
2018-11-14T18:00:34.032Z,99538.48
2018-11-14T18:03:02.583Z,99541.17
2018-11-14T18:05:32.028Z,99548.41
2018-11-14T18:08:00.529Z,99549.56
2018-11-14T18:10:30.448Z,99548.00
2018-11-14T18:13:00.004Z,99551.19
2018-11-14T18:15:28.561Z,99552.41
2018-11-14T18:17:57.516Z,99546.70
2018-11-14T18:20:27.550Z,99540.06
2018-11-14T18:22:56.581Z,99547.25
2018-11-14T18:25:25.411Z,99544.47
2018-11-14T18:27:53.904Z,99549.89
2018-11-14T18:30:28.887Z,99550.05
2018-11-14T18:32:58.394Z,99552.03
2018-11-14T18:35:27.716Z,99551.13
2018-11-14T18:37:57.154Z,99551.59
2018-11-14T18:40:27.184Z,99557.48
2018-11-14T18:42:55.934Z,99555.61
2018-11-14T18:45:27.776Z,99544.81
2018-11-14T18:47:57.253Z,99546.30
2018-11-14T18:50:26.116Z,99537.80
2018-11-14T18:52:54.732Z,99541.58
2018-11-14T18:55:24.911Z,99544.80
2018-11-14T18:57:53.730Z,99544.12
2018-11-14T19:00:26.619Z,99540.06
2018-11-14T19:02:55.141Z,99536.27
2018-11-14T19:05:23.610Z,99548.16
2018-11-14T19:07:52.136Z,99547.94
2018-11-14T19:10:22.409Z,99515.30
2018-11-14T19:13:21.569Z,99542.00
2018-11-14T19:15:50.084Z,99542.34
2018-11-14T19:18:18.581Z,99540.52
2018-11-14T19:20:47.056Z,99542.92
2018-11-14T19:23:15.693Z,99544.78
2018-11-14T19:25:44.156Z,99546.64
2018-11-14T19:28:12.691Z,99547.85
2018-11-14T19:30:41.277Z,99550.50
2018-11-14T19:33:09.807Z,99557.45
2018-11-14T19:35:38.355Z,99565.04
2018-11-14T19:38:06.978Z,99567.59
2018-11-14T19:40:36.996Z,99571.00
2018-11-14T19:43:07.547Z,99564.67
2018-11-14T19:45:37.434Z,99569.08
2018-11-14T19:48:06.461Z,99564.67
2018-11-14T19:50:35.181Z,99558.55
2018-11-14T19:53:04.387Z,99557.78
2018-11-14T19:55:33.736Z,99554.76
2018-11-14T19:58:03.649Z,99555.64
2018-11-14T20:00:33.443Z,99555.75
2018-11-14T20:03:01.964Z,99558.86
2018-11-14T20:05:30.465Z,99556.53
2018-11-14T20:07:58.998Z,99545.38
2018-11-14T20:10:30.194Z,99554.61
2018-11-14T20:12:58.630Z,99551.21
2018-11-14T20:15:32.746Z,99561.49
2018-11-14T20:18:01.283Z,99550.44
2018-11-14T20:20:31.345Z,99553.66
2018-11-14T20:22:59.862Z,99549.27
2018-11-14T20:25:28.400Z,99546.27
2018-11-14T20:27:57.129Z,99546.58
2018-11-14T20:30:27.129Z,99542.34
2018-11-14T20:32:57.034Z,99549.09
2018-11-14T20:35:26.547Z,99549.32
2018-11-14T20:37:55.115Z,99545.47
2018-11-14T20:40:24.141Z,99548.55
2018-11-14T20:42:53.423Z,99546.23
2018-11-14T20:45:26.331Z,99555.01
2018-11-14T20:47:54.903Z,99551.34
2018-11-14T20:50:24.538Z,99557.14
2018-11-14T20:52:55.095Z,99555.38
2018-11-14T20:55:23.611Z,99551.21
2018-11-14T20:57:52.138Z,99547.72
2018-11-14T21:00:22.867Z,99552.72
2018-11-14T21:02:51.815Z,99552.66
2018-11-14T21:05:20.633Z,99558.01
2018-11-14T21:07:49.147Z,99559.23
2018-11-14T21:10:19.213Z,99554.28
2018-11-14T21:12:48.772Z,99551.53
2018-11-14T21:15:20.415Z,99549.00
2018-11-14T21:17:49.947Z,99552.66
2018-11-14T21:20:18.482Z,99555.00
2018-11-14T21:22:47.141Z,99558.87
2018-11-14T21:25:16.922Z,99559.82
2018-11-14T21:27:46.547Z,99560.13
2018-11-14T21:30:16.784Z,99562.53
2018-11-14T21:32:45.625Z,99562.27
2018-11-14T21:35:18.576Z,99560.14
2018-11-14T21:37:48.671Z,99559.77
2018-11-14T21:40:17.199Z,99550.34
2018-11-14T21:42:45.700Z,99552.66
2018-11-14T21:45:16.816Z,99551.98
2018-11-14T21:47:50.346Z,99556.25
2018-11-14T21:50:20.092Z,99551.52
2018-11-14T21:52:49.091Z,99549.00
2018-11-14T21:55:18.395Z,99553.69
2018-11-14T21:57:46.888Z,99550.63
2018-11-14T22:00:19.792Z,99563.79
2018-11-14T22:02:49.683Z,99565.80
2018-11-14T22:05:18.299Z,99568.34
2018-11-14T22:07:46.978Z,99556.60
2018-11-14T22:10:17.999Z,99552.78
2018-11-14T22:12:46.983Z,99553.42
2018-11-14T22:15:16.512Z,99549.11
2018-11-14T22:17:44.972Z,99552.11
2018-11-14T22:20:14.646Z,99556.66
2018-11-14T22:22:44.728Z,99554.74
2018-11-14T22:25:14.570Z,99565.13
2018-11-14T22:27:43.114Z,99566.33
2018-11-14T22:30:17.561Z,99552.91
2018-11-14T22:32:46.323Z,99562.83
2018-11-14T22:35:16.184Z,99561.55
2018-11-14T22:37:44.675Z,99546.09
2018-11-14T22:40:15.012Z,99547.91
2018-11-14T22:42:44.283Z,99543.97
2018-11-14T22:45:15.243Z,99550.50
2018-11-14T22:47:44.279Z,99539.87
2018-11-14T22:50:14.374Z,99539.39
2018-11-14T22:52:43.772Z,99540.31
2018-11-14T22:55:13.355Z,99536.63
2018-11-14T22:57:42.980Z,99529.56
2018-11-14T23:00:21.141Z,99536.51
2018-11-14T23:02:51.408Z,99532.66
2018-11-14T23:05:20.370Z,99525.00
2018-11-14T23:07:50.170Z,99521.02
2018-11-14T23:10:20.000Z,99518.80
2018-11-14T23:12:49.046Z,99514.80
2018-11-14T23:15:18.132Z,99514.31
2018-11-14T23:17:46.890Z,99511.33
2018-11-14T23:20:16.487Z,99515.58
2018-11-14T23:22:45.819Z,99516.30
2018-11-14T23:25:14.844Z,99505.50
2018-11-14T23:27:44.616Z,99501.00
2018-11-14T23:30:14.362Z,99492.59
2018-11-14T23:32:43.959Z,99498.94
2018-11-14T23:35:16.656Z,99496.03
2018-11-14T23:37:47.275Z,99493.27
2018-11-14T23:40:15.765Z,99491.48
2018-11-14T23:42:44.240Z,99487.61
2018-11-14T23:45:14.171Z,99500.59
2018-11-14T23:47:43.683Z,99505.03
2018-11-14T23:50:16.257Z,99499.34
2018-11-14T23:52:46.076Z,99504.55
2018-11-14T23:55:15.365Z,99502.04
2018-11-14T23:57:43.966Z,99501.19
